createdAt,value
2023-02-09T00:01:21.350Z,7.03
2023-02-09T00:03:49.084Z,7.10
2023-02-09T00:06:18.181Z,6.77
2023-02-09T00:08:45.732Z,7.40
2023-02-09T00:11:47.891Z,8.13
2023-02-09T00:14:16.949Z,8.03
2023-02-09T00:16:44.305Z,7.33
2023-02-09T00:19:12.285Z,6.87
2023-02-09T00:21:40.231Z,8.53
2023-02-09T00:24:08.044Z,8.10
2023-02-09T00:26:35.132Z,8.83
2023-02-09T00:29:02.246Z,9.53
2023-02-09T00:31:29.734Z,7.60
2023-02-09T00:33:56.771Z,7.57
2023-02-09T00:36:23.481Z,7.90
2023-02-09T00:38:50.537Z,6.87
2023-02-09T00:41:17.652Z,7.57
2023-02-09T00:43:44.683Z,8.40
2023-02-09T00:46:11.362Z,7.40
2023-02-09T00:48:38.073Z,8.40
2023-02-09T00:51:05.302Z,6.67
2023-02-09T00:53:32.099Z,7.60
2023-02-09T00:56:00.267Z,7.77
2023-02-09T00:58:26.927Z,8.23
2023-02-09T01:00:54.015Z,8.03
2023-02-09T01:03:20.690Z,7.97
2023-02-09T01:05:47.706Z,8.33
2023-02-09T01:08:14.722Z,8.40
2023-02-09T01:10:41.337Z,8.30
2023-02-09T01:13:08.950Z,7.40
2023-02-09T01:15:38.672Z,7.87
2023-02-09T01:18:05.730Z,6.70
2023-02-09T01:20:32.316Z,8.67
2023-02-09T01:22:58.927Z,9.03
2023-02-09T01:25:26.982Z,8.57
2023-02-09T01:27:54.029Z,8.53
2023-02-09T01:30:21.176Z,7.83
2023-02-09T01:32:48.315Z,7.93
2023-02-09T01:35:14.918Z,7.67
2023-02-09T01:37:41.562Z,7.70
2023-02-09T01:40:09.556Z,7.97
2023-02-09T01:45:45.011Z,7.83
2023-02-09T01:48:13.662Z,6.73
2023-02-09T01:50:45.635Z,7.23
2023-02-09T01:53:13.065Z,6.77
2023-02-09T01:55:52.082Z,7.10
2023-02-09T01:58:21.576Z,7.00
2023-02-09T02:00:49.035Z,8.20
2023-02-09T02:03:19.180Z,7.27
2023-02-09T02:05:50.430Z,7.20
2023-02-09T02:08:25.204Z,6.97
2023-02-09T02:10:53.096Z,6.10
2023-02-09T02:13:20.266Z,7.87
2023-02-09T02:15:49.624Z,7.50
2023-02-09T02:18:41.587Z,7.33
2023-02-09T02:21:20.691Z,7.90
2023-02-09T02:24:18.699Z,7.57
2023-02-09T02:27:03.927Z,7.53
2023-02-09T02:30:03.446Z,7.70
2023-02-09T02:32:47.934Z,7.30
2023-02-09T02:35:19.072Z,7.33
2023-02-09T02:38:18.250Z,6.83
2023-02-09T02:40:54.830Z,8.23
2023-02-09T02:43:36.451Z,7.00
2023-02-09T02:46:15.426Z,8.30
2023-02-09T02:48:54.517Z,7.37
2023-02-09T02:51:38.781Z,6.60
2023-02-09T02:54:29.051Z,7.07
2023-02-09T02:57:03.447Z,6.70
2023-02-09T02:59:34.946Z,6.43
2023-02-09T03:02:11.560Z,7.90
2023-02-09T03:04:40.011Z,7.40
2023-02-09T03:07:08.041Z,6.97
2023-02-09T03:09:35.517Z,6.27
2023-02-09T03:12:23.892Z,6.67
2023-02-09T03:15:08.655Z,7.47
2023-02-09T03:17:49.845Z,6.40
2023-02-09T03:20:25.197Z,6.33
2023-02-09T03:23:02.790Z,7.40
2023-02-09T03:25:40.445Z,7.17
2023-02-09T03:28:25.160Z,7.77
2023-02-09T03:30:53.173Z,5.47
2023-02-09T03:33:24.318Z,6.87
2023-02-09T03:38:44.739Z,6.93
2023-02-09T03:41:11.446Z,6.73
2023-02-09T03:43:57.105Z,6.57
2023-02-09T03:46:24.148Z,7.60
2023-02-09T03:48:50.927Z,7.10
2023-02-09T03:51:21.005Z,7.23
2023-02-09T03:53:47.603Z,6.70
2023-02-09T03:56:14.650Z,8.00
2023-02-09T03:58:41.307Z,7.47
2023-02-09T04:01:10.519Z,6.20
2023-02-09T04:03:39.795Z,6.73
2023-02-09T04:06:13.651Z,6.80
2023-02-09T04:08:43.401Z,6.47
2023-02-09T04:11:11.032Z,7.77
2023-02-09T04:13:37.625Z,7.10
2023-02-09T04:16:05.047Z,6.87
2023-02-09T04:18:31.675Z,7.10
2023-02-09T04:20:58.344Z,5.80
2023-02-09T04:23:25.385Z,6.50
2023-02-09T04:25:52.397Z,6.73
2023-02-09T04:28:19.071Z,7.13
2023-02-09T04:30:46.506Z,7.10
2023-02-09T04:33:13.273Z,6.93
2023-02-09T04:35:39.891Z,5.60
2023-02-09T04:38:06.976Z,6.47
2023-02-09T04:40:34.060Z,6.47
2023-02-09T04:43:00.736Z,7.17
2023-02-09T04:45:27.973Z,6.47
2023-02-09T04:47:54.609Z,7.50
2023-02-09T04:50:21.648Z,6.00
2023-02-09T04:52:48.949Z,6.33
2023-02-09T04:55:15.602Z,5.70
2023-02-09T04:58:01.083Z,6.13
2023-02-09T05:00:27.740Z,7.50
2023-02-09T05:02:55.969Z,6.27
2023-02-09T05:05:22.566Z,7.23
2023-02-09T05:07:49.374Z,6.37
2023-02-09T05:10:16.465Z,6.77
2023-02-09T05:12:43.179Z,7.57
2023-02-09T05:15:10.524Z,7.23
2023-02-09T05:17:37.154Z,8.20
2023-02-09T05:20:04.229Z,6.57
2023-02-09T05:22:31.279Z,7.23
2023-02-09T05:24:57.899Z,6.63
2023-02-09T05:27:24.506Z,6.40
2023-02-09T05:29:51.626Z,6.40
2023-02-09T05:32:18.299Z,6.30
2023-02-09T05:34:45.015Z,5.83
2023-02-09T05:37:13.877Z,7.13
2023-02-09T05:39:40.471Z,7.47
2023-02-09T05:42:16.341Z,7.50
2023-02-09T05:44:48.516Z,6.53
2023-02-09T05:47:17.761Z,6.60
2023-02-09T05:49:44.557Z,7.07
2023-02-09T05:52:12.669Z,6.97
2023-02-09T05:54:39.469Z,6.27
2023-02-09T05:57:06.782Z,7.73
2023-02-09T05:59:33.744Z,6.73
2023-02-09T06:02:01.280Z,6.03
2023-02-09T06:04:28.959Z,5.93
2023-02-09T06:06:56.258Z,6.53
2023-02-09T06:09:23.544Z,5.80
2023-02-09T06:11:50.480Z,7.30
2023-02-09T06:14:17.966Z,6.37
2023-02-09T06:16:44.946Z,6.97
2023-02-09T06:19:16.574Z,7.57
2023-02-09T06:21:43.983Z,7.07
2023-02-09T06:24:11.350Z,6.90
2023-02-09T06:26:38.034Z,8.03
2023-02-09T06:29:04.762Z,8.23
2023-02-09T06:31:31.754Z,9.13
2023-02-09T06:33:58.514Z,10.63
2023-02-09T06:36:25.142Z,13.00
2023-02-09T06:38:52.264Z,10.20
2023-02-09T06:41:18.871Z,9.97
2023-02-09T06:43:45.528Z,11.60
2023-02-09T06:46:13.536Z,9.67
2023-02-09T06:48:40.498Z,10.93
2023-02-09T06:51:13.063Z,12.40
2023-02-09T06:53:40.822Z,11.73
2023-02-09T06:56:08.637Z,7.60
2023-02-09T06:58:37.010Z,8.17
2023-02-09T07:01:08.971Z,10.50
2023-02-09T07:03:36.242Z,11.10
2023-02-09T07:06:15.713Z,9.17
2023-02-09T07:08:43.001Z,9.80
2023-02-09T07:11:12.589Z,18.53
2023-02-09T07:13:39.372Z,13.57
2023-02-09T07:16:11.602Z,13.67
2023-02-09T07:18:39.313Z,14.53
2023-02-09T07:21:09.673Z,12.57
2023-02-09T07:23:36.943Z,13.87
2023-02-09T07:26:08.924Z,14.73
2023-02-09T07:28:47.986Z,12.40
2023-02-09T07:31:16.491Z,11.63
2023-02-09T07:33:43.949Z,12.37
2023-02-09T07:36:13.596Z,12.07
2023-02-09T07:38:41.599Z,13.17
2023-02-09T07:41:14.034Z,13.77
2023-02-09T07:43:40.634Z,11.47
2023-02-09T07:46:08.400Z,13.27
2023-02-09T07:48:35.534Z,11.20
2023-02-09T07:51:02.429Z,11.57
2023-02-09T07:53:29.801Z,11.10
2023-02-09T07:55:56.632Z,12.47
2023-02-09T07:58:23.722Z,13.27
2023-02-09T08:00:51.642Z,12.13
2023-02-09T08:03:21.078Z,11.93
2023-02-09T08:06:06.084Z,10.53
2023-02-09T08:08:32.714Z,8.10
2023-02-09T08:11:00.970Z,8.97
2023-02-09T08:13:31.556Z,8.40
2023-02-09T08:16:02.889Z,7.23
2023-02-09T08:18:36.814Z,8.00
2023-02-09T08:21:06.663Z,8.03
2023-02-09T08:23:35.374Z,10.07
2023-02-09T08:26:07.185Z,9.27
2023-02-09T08:28:43.709Z,10.67
2023-02-09T08:31:17.323Z,9.67
2023-02-09T08:33:45.774Z,9.77
2023-02-09T08:36:13.611Z,10.20
2023-02-09T08:38:40.583Z,10.83
2023-02-09T08:41:09.321Z,19.07
2023-02-09T08:43:36.331Z,14.90
2023-02-09T08:46:11.634Z,18.50
2023-02-09T08:48:52.843Z,13.13
2023-02-09T08:51:19.476Z,10.37
2023-02-09T08:53:52.440Z,10.07
2023-02-09T08:56:20.566Z,10.47
2023-02-09T08:58:47.781Z,10.33
2023-02-09T09:01:14.594Z,9.03
2023-02-09T09:03:42.204Z,10.10
2023-02-09T09:06:11.338Z,9.33
2023-02-09T09:08:40.274Z,7.57
2023-02-09T09:11:13.049Z,7.60
2023-02-09T09:13:41.593Z,8.40
2023-02-09T09:16:17.606Z,7.40
2023-02-09T09:18:44.848Z,7.70
2023-02-09T09:21:16.398Z,7.80
2023-02-09T09:23:44.334Z,7.03
2023-02-09T09:26:11.337Z,7.80
2023-02-09T09:28:38.098Z,6.68
2023-02-09T09:31:14.224Z,4.70
2023-02-09T09:33:42.121Z,3.90
2023-02-09T09:36:10.239Z,4.23
2023-02-09T09:38:38.886Z,3.87
2023-02-09T09:41:28.323Z,5.20
2023-02-09T09:43:56.122Z,4.10
2023-02-09T09:46:37.491Z,4.40
2023-02-09T09:49:05.287Z,3.97
2023-02-09T09:51:47.763Z,4.23
2023-02-09T09:54:21.648Z,4.00
2023-02-09T09:56:49.079Z,4.43
2023-02-09T09:59:21.947Z,4.30
2023-02-09T10:01:51.451Z,4.60
2023-02-09T10:04:20.693Z,4.57
2023-02-09T10:06:54.430Z,4.87
2023-02-09T10:09:46.665Z,4.27
2023-02-09T10:13:07.595Z,4.33
2023-02-09T10:15:36.771Z,5.50
2023-02-09T10:18:12.974Z,4.87
2023-02-09T10:21:01.182Z,4.33
2023-02-09T10:23:37.727Z,5.40
2023-02-09T10:26:20.346Z,7.20
2023-02-09T10:28:58.731Z,4.93
2023-02-09T10:31:37.497Z,4.93
2023-02-09T10:34:15.759Z,4.80
2023-02-09T10:36:50.159Z,5.20
2023-02-09T10:39:23.638Z,5.70
2023-02-09T10:41:53.237Z,5.50
2023-02-09T10:44:26.330Z,5.57
2023-02-09T10:47:10.619Z,5.00
2023-02-09T10:50:11.378Z,5.10
2023-02-09T10:53:00.553Z,5.13
2023-02-09T10:55:34.442Z,4.83
2023-02-09T10:58:26.965Z,4.60
2023-02-09T11:01:04.400Z,5.20
2023-02-09T11:03:31.273Z,4.37
2023-02-09T11:06:04.250Z,4.57
2023-02-09T11:08:48.010Z,4.23
2023-02-09T11:11:44.696Z,5.00
2023-02-09T11:14:17.616Z,5.07
2023-02-09T11:17:06.691Z,6.63
2023-02-09T11:20:12.143Z,4.40
2023-02-09T11:23:01.482Z,5.50
2023-02-09T11:25:34.054Z,4.90
2023-02-09T11:28:33.885Z,4.77
2023-02-09T11:31:17.739Z,5.00
2023-02-09T11:33:56.106Z,6.73
2023-02-09T11:36:49.387Z,5.03
2023-02-09T11:39:30.040Z,4.90
2023-02-09T11:42:22.076Z,4.47
2023-02-09T11:45:00.629Z,4.97
2023-02-09T11:48:02.387Z,4.93
2023-02-09T11:50:44.577Z,5.27
2023-02-09T11:53:48.644Z,5.13
2023-02-09T11:56:19.357Z,5.67
2023-02-09T11:58:59.887Z,5.47
2023-02-09T12:01:39.233Z,5.93
2023-02-09T12:04:21.104Z,5.33
2023-02-09T12:06:54.756Z,5.90
2023-02-09T12:09:26.950Z,5.63
2023-02-09T12:12:04.563Z,4.90
2023-02-09T12:14:57.031Z,5.17
2023-02-09T12:17:54.781Z,4.67
2023-02-09T12:20:44.454Z,5.63
2023-02-09T12:23:11.226Z,5.57
2023-02-09T12:25:51.317Z,5.30
2023-02-09T12:29:03.569Z,5.23
2023-02-09T12:31:51.149Z,5.50
2023-02-09T12:34:27.666Z,5.83
2023-02-09T12:37:28.297Z,5.77
2023-02-09T12:40:16.947Z,5.40
2023-02-09T12:42:47.017Z,5.60
2023-02-09T12:45:33.568Z,5.27
2023-02-09T12:48:09.500Z,5.37
2023-02-09T12:50:48.231Z,5.60
2023-02-09T12:53:21.843Z,5.47
2023-02-09T12:56:11.392Z,5.40
2023-02-09T12:59:12.915Z,5.77
2023-02-09T13:02:07.721Z,5.53
2023-02-09T13:05:04.239Z,5.43
2023-02-09T13:07:34.072Z,5.17
2023-02-09T13:10:24.412Z,5.70
2023-02-09T13:13:03.313Z,5.63
2023-02-09T13:16:09.986Z,4.97
2023-02-09T13:19:02.686Z,5.27
2023-02-09T13:22:06.980Z,5.03
2023-02-09T13:24:44.125Z,6.23
2023-02-09T13:27:19.876Z,5.73
2023-02-09T13:29:51.873Z,5.77
2023-02-09T13:32:55.687Z,5.83
2023-02-09T13:35:32.149Z,5.43
2023-02-09T13:38:00.109Z,7.13
2023-02-09T13:40:36.799Z,5.07
2023-02-09T13:43:11.943Z,5.00
2023-02-09T13:45:53.143Z,7.80
2023-02-09T13:48:32.278Z,6.17
2023-02-09T13:51:04.077Z,7.43
2023-02-09T13:53:31.857Z,4.83
2023-02-09T13:56:00.309Z,6.50
2023-02-09T13:58:36.462Z,5.70
2023-02-09T14:01:06.586Z,5.40
2023-02-09T14:03:47.020Z,4.77
2023-02-09T14:06:47.421Z,5.73
2023-02-09T14:09:20.756Z,5.40
2023-02-09T14:11:53.249Z,5.47
2023-02-09T14:14:50.275Z,4.90
2023-02-09T14:17:29.713Z,5.07
2023-02-09T14:19:58.784Z,4.73
2023-02-09T14:22:39.523Z,5.37
2023-02-09T14:25:27.043Z,5.53
2023-02-09T14:27:54.248Z,5.30
2023-02-09T14:30:32.048Z,5.20
2023-02-09T14:33:00.955Z,5.50
2023-02-09T14:35:39.653Z,5.20
2023-02-09T14:38:26.215Z,5.80
2023-02-09T14:40:53.087Z,5.47
2023-02-09T14:43:27.096Z,7.03
2023-02-09T14:46:01.528Z,6.20
2023-02-09T14:48:29.961Z,6.67
2023-02-09T14:51:02.548Z,5.37
2023-02-09T14:53:33.283Z,6.27
2023-02-09T14:55:59.896Z,5.70
2023-02-09T14:58:31.772Z,6.07
2023-02-09T15:01:01.000Z,6.70
2023-02-09T15:03:28.155Z,7.03
2023-02-09T15:05:58.824Z,6.20
2023-02-09T15:08:28.514Z,6.37
2023-02-09T15:11:24.222Z,6.87
2023-02-09T15:13:57.841Z,6.07
2023-02-09T15:16:24.829Z,6.40
2023-02-09T15:18:51.531Z,6.47
2023-02-09T15:21:18.410Z,6.10
2023-02-09T15:23:45.296Z,6.93
2023-02-09T15:26:16.882Z,7.23
2023-02-09T15:28:43.617Z,6.20
2023-02-09T15:31:16.105Z,7.87
2023-02-09T15:33:43.332Z,7.47
2023-02-09T15:36:19.600Z,6.83
2023-02-09T15:38:46.406Z,7.33
2023-02-09T15:41:31.757Z,7.60
2023-02-09T15:44:32.077Z,7.47
2023-02-09T15:47:17.724Z,7.63
2023-02-09T15:49:44.361Z,7.67
2023-02-09T15:52:11.815Z,8.50
2023-02-09T15:54:40.010Z,14.57
2023-02-09T15:57:11.346Z,8.57
2023-02-09T15:59:37.934Z,8.60
2023-02-09T16:02:11.543Z,9.03
2023-02-09T16:04:38.300Z,14.23
2023-02-09T16:07:05.615Z,14.73
2023-02-09T16:09:33.442Z,8.73
2023-02-09T16:12:00.066Z,8.07
2023-02-09T16:14:27.603Z,10.30
2023-02-09T16:16:54.354Z,10.90
2023-02-09T16:19:21.531Z,8.20
2023-02-09T16:21:56.231Z,9.63
2023-02-09T16:24:26.785Z,7.43
2023-02-09T16:26:53.736Z,12.63
2023-02-09T16:29:20.409Z,7.73
2023-02-09T16:31:47.736Z,6.83
2023-02-09T16:34:15.650Z,10.60
2023-02-09T16:36:43.018Z,16.57
2023-02-09T16:39:17.417Z,9.07
2023-02-09T16:41:47.342Z,8.00
2023-02-09T16:44:26.303Z,9.33
2023-02-09T16:46:55.675Z,9.37
2023-02-09T16:49:40.276Z,9.00
2023-02-09T16:52:21.617Z,8.10
2023-02-09T16:54:54.950Z,14.23
2023-02-09T16:57:23.549Z,8.47
2023-02-09T16:59:51.017Z,8.50
2023-02-09T17:02:41.022Z,12.43
2023-02-09T17:05:21.106Z,15.47
2023-02-09T17:07:54.992Z,19.10
2023-02-09T17:10:25.371Z,21.07
2023-02-09T17:12:53.613Z,24.00
2023-02-09T17:15:30.141Z,16.70
2023-02-09T17:18:02.295Z,21.30
2023-02-09T17:20:35.446Z,22.30
2023-02-09T17:23:02.340Z,12.93
2023-02-09T17:25:29.023Z,13.60
2023-02-09T17:27:55.655Z,16.67
2023-02-09T17:30:22.614Z,19.83
2023-02-09T17:33:00.147Z,19.23
2023-02-09T17:35:52.915Z,11.83
2023-02-09T17:38:29.712Z,68.77
2023-02-09T17:40:59.475Z,15.80
2023-02-09T17:43:26.491Z,14.57
2023-02-09T17:45:54.049Z,10.83
2023-02-09T17:48:35.043Z,9.10
2023-02-09T17:51:03.025Z,16.07
2023-02-09T17:53:33.718Z,9.40
2023-02-09T17:56:00.708Z,13.80
2023-02-09T17:58:27.348Z,10.13
2023-02-09T18:00:55.895Z,12.47
2023-02-09T18:03:24.567Z,10.63
2023-02-09T18:05:58.538Z,10.97
2023-02-09T18:08:27.519Z,9.73
2023-02-09T18:10:57.792Z,10.10
2023-02-09T18:13:27.217Z,8.70
2023-02-09T18:15:54.655Z,12.07
2023-02-09T18:18:24.059Z,10.53
2023-02-09T18:20:51.234Z,10.03
2023-02-09T18:23:18.115Z,8.33
2023-02-09T18:25:46.916Z,7.60
2023-02-09T18:28:15.247Z,7.53
2023-02-09T18:30:43.045Z,9.00
2023-02-09T18:33:10.865Z,8.67
2023-02-09T18:35:42.694Z,9.00
2023-02-09T18:38:11.746Z,8.13
2023-02-09T18:40:39.279Z,7.30
2023-02-09T18:43:06.825Z,9.17
2023-02-09T18:45:34.127Z,8.80
2023-02-09T18:48:01.683Z,10.80
2023-02-09T18:50:30.939Z,12.73
2023-02-09T18:53:03.131Z,9.70
2023-02-09T18:55:32.450Z,13.80
2023-02-09T18:58:00.792Z,22.73
2023-02-09T19:00:30.137Z,14.63
2023-02-09T19:02:57.819Z,12.83
2023-02-09T19:05:26.877Z,13.73
2023-02-09T19:07:54.623Z,13.40
2023-02-09T19:10:22.216Z,12.13
2023-02-09T19:12:48.982Z,11.00
2023-02-09T19:15:20.900Z,11.17
2023-02-09T19:17:47.583Z,11.10
2023-02-09T19:20:20.442Z,13.77
2023-02-09T19:22:51.555Z,9.93
2023-02-09T19:25:19.679Z,9.23
2023-02-09T19:27:46.386Z,11.27
2023-02-09T19:30:16.968Z,9.57
2023-02-09T19:32:43.661Z,9.80
2023-02-09T19:35:11.035Z,10.10
2023-02-09T19:37:40.122Z,10.20
2023-02-09T19:40:21.347Z,11.43
2023-02-09T19:42:48.663Z,13.57
2023-02-09T19:45:15.893Z,17.97
2023-02-09T19:47:42.556Z,13.73
2023-02-09T19:50:10.775Z,24.43
2023-02-09T19:52:40.875Z,12.17
2023-02-09T19:55:07.817Z,20.10
2023-02-09T19:57:34.639Z,22.07
2023-02-09T20:00:02.426Z,16.13
2023-02-09T20:02:30.584Z,16.47
2023-02-09T20:04:57.233Z,20.80
2023-02-09T20:07:24.106Z,22.73
2023-02-09T20:09:52.514Z,13.33
2023-02-09T20:12:21.414Z,10.33
2023-02-09T20:14:48.399Z,9.53
2023-02-09T20:17:15.252Z,10.80
2023-02-09T20:19:41.894Z,10.03
2023-02-09T20:22:08.506Z,13.90
2023-02-09T20:24:35.126Z,14.10
2023-02-09T20:27:02.030Z,13.30
2023-02-09T20:29:28.640Z,12.00
2023-02-09T20:31:55.397Z,12.23
2023-02-09T20:34:22.136Z,12.53
2023-02-09T20:36:50.134Z,13.40
2023-02-09T20:39:17.806Z,12.93
2023-02-09T20:42:07.177Z,12.20
2023-02-09T20:44:53.468Z,13.37
2023-02-09T20:47:20.160Z,13.10
2023-02-09T20:49:46.857Z,11.90
2023-02-09T20:52:13.861Z,10.33
2023-02-09T20:54:40.701Z,10.33
2023-02-09T20:57:07.418Z,10.50
2023-02-09T20:59:34.717Z,10.43
2023-02-09T21:02:01.617Z,12.23
2023-02-09T21:04:30.370Z,11.93
2023-02-09T21:06:58.259Z,12.37
2023-02-09T21:09:29.029Z,11.37
2023-02-09T21:11:56.279Z,10.87
2023-02-09T21:14:28.048Z,14.17
2023-02-09T21:16:59.561Z,11.80
2023-02-09T21:19:26.663Z,12.60
2023-02-09T21:21:53.305Z,12.17
2023-02-09T21:24:20.201Z,9.97
2023-02-09T21:26:46.833Z,12.43
2023-02-09T21:29:14.433Z,12.23
2023-02-09T21:31:41.728Z,12.90
2023-02-09T21:34:12.089Z,13.33
2023-02-09T21:36:38.957Z,13.80
2023-02-09T21:39:05.594Z,12.50
2023-02-09T21:41:51.044Z,11.83
2023-02-09T21:48:05.262Z,13.07
2023-02-09T21:50:32.162Z,14.27
2023-02-09T21:52:59.661Z,13.20
2023-02-09T21:55:26.537Z,13.10
2023-02-09T21:57:53.148Z,12.47
2023-02-09T22:00:20.059Z,13.03
2023-02-09T22:02:51.721Z,14.40
2023-02-09T22:05:18.376Z,12.50
2023-02-09T22:07:46.356Z,14.27
2023-02-09T22:10:13.257Z,14.97
2023-02-09T22:12:40.266Z,13.87
2023-02-09T22:15:07.683Z,12.57
2023-02-09T22:17:37.352Z,14.03
2023-02-09T22:20:05.551Z,13.17
2023-02-09T22:22:32.286Z,15.10
2023-02-09T22:24:59.328Z,12.70
2023-02-09T22:27:26.711Z,13.63
2023-02-09T22:29:53.313Z,12.73
2023-02-09T22:32:20.420Z,13.73
2023-02-09T22:34:47.301Z,13.17
2023-02-09T22:37:13.921Z,14.00
2023-02-09T22:39:40.846Z,14.97
2023-02-09T22:42:07.522Z,13.53
2023-02-09T22:44:34.259Z,12.73
2023-02-09T22:47:01.137Z,13.13
2023-02-09T22:49:27.766Z,13.90
2023-02-09T22:51:54.371Z,14.43
2023-02-09T22:54:21.496Z,13.40
2023-02-09T22:56:48.188Z,15.10
2023-02-09T22:59:15.509Z,14.30
2023-02-09T23:01:43.472Z,14.63
2023-02-09T23:04:10.526Z,14.27
2023-02-09T23:06:37.229Z,12.87
2023-02-09T23:09:07.412Z,13.30
2023-02-09T23:11:34.241Z,15.00
2023-02-09T23:14:10.712Z,13.03
2023-02-09T23:16:39.472Z,13.60
2023-02-09T23:19:09.088Z,14.20
2023-02-09T23:21:39.694Z,14.70
2023-02-09T23:24:07.304Z,15.20
2023-02-09T23:26:34.591Z,14.90
2023-02-09T23:29:04.042Z,14.53
2023-02-09T23:31:30.773Z,15.77
2023-02-09T23:33:58.611Z,13.33
2023-02-09T23:36:27.625Z,15.43
2023-02-09T23:38:56.430Z,15.53
2023-02-09T23:41:24.094Z,14.83
2023-02-09T23:43:51.266Z,14.43
2023-02-09T23:46:20.970Z,16.10
2023-02-09T23:48:48.187Z,14.50
2023-02-09T23:51:18.403Z,14.77
2023-02-09T23:53:46.451Z,16.37
2023-02-09T23:56:14.411Z,14.83
2023-02-09T23:58:43.844Z,14.03
